< < Back
Terminal Aerodrome Forecast


Current Version              Previous Versions:   1  2  3  4  5  6  7  8  9  

Terminal Aerodrome Forecast

865
FTUS42 KGSP 311726 AAA
TAFAVL
TAF AMD
KAVL 311726Z 3117/0118 25006KT P6SM SKC
     FM010100 32008KT P6SM SCT045
     FM010600 35009KT P6SM SCT030
     FM011100 35006KT 6SM BR FEW190
     FM011500 36006KT P6SM SCT060=

Latest METAR

469
SAUS70 KWBC 010400 RRQ
MTRAVL
METAR KAVL 010354Z AUTO 30004KT 10SM CLR 16/06 A2992 RMK AO2 SLP116
T01610056


USA.gov is the U.S. government's official web portal to all federal, state and local government web resources and services.